Alexandria, Ohio
Current Conditions -  °F | °C
As of 3:21 PM on Friday 31 Oct 2014 (Local Time) from KVTA Reporting Station
Light Rain Light Rain  
Wind Chill: 43°   Ceiling: 2600
Heat Index: 47°   Visibility: 10mi
Dew Point: 39°   Wind: 8mph
Humidity: 74%   Direction: 210°SSW
Pressure: 29.84"   Gusts: NA
Location:  40.09°N, 82.61°W
Report Text: KVTA 311921Z AUTO 21007KT 10SM -RA SCT020 BKN026 OVC055 08/04 A2984 RMK AO2 RAB1855 P0000 T00830039
Loading
Personal Weather Stations






























Interactive Weather Map New forecast layout! Learn more

10-Day Weather Forecast

Advertisements
Track Severe Weather on mobile